sensor_id;sensor_type;location;lat;lon;timestamp;temperature;humidity
67147;DHT22;54061;52.036;5.558;2022-09-03T00:00:14;19.50;46.70
67147;DHT22;54061;52.036;5.558;2022-09-03T00:02:51;19.40;45.60
67147;DHT22;54061;52.036;5.558;2022-09-03T00:05:22;19.30;46.20
67147;DHT22;54061;52.036;5.558;2022-09-03T00:13:03;19.20;46.10
67147;DHT22;54061;52.036;5.558;2022-09-03T00:15:31;19.20;45.70
67147;DHT22;54061;52.036;5.558;2022-09-03T00:18:08;19.20;45.70
67147;DHT22;54061;52.036;5.558;2022-09-03T00:20:45;19.20;46.20
67147;DHT22;54061;52.036;5.558;2022-09-03T00:23:17;19.20;46.20
67147;DHT22;54061;52.036;5.558;2022-09-03T00:25:54;19.20;47.20
67147;DHT22;54061;52.036;5.558;2022-09-03T00:28:24;19.10;47.10
67147;DHT22;54061;52.036;5.558;2022-09-03T00:30:55;19.00;47.00
67147;DHT22;54061;52.036;5.558;2022-09-03T00:33:25;19.00;46.10
67147;DHT22;54061;52.036;5.558;2022-09-03T00:38:24;18.90;48.10
67147;DHT22;54061;52.036;5.558;2022-09-03T00:45:51;18.70;48.30
67147;DHT22;54061;52.036;5.558;2022-09-03T00:48:25;18.60;48.30
67147;DHT22;54061;52.036;5.558;2022-09-03T00:54:03;18.50;49.60
67147;DHT22;54061;52.036;5.558;2022-09-03T00:56:09;18.40;49.50
67147;DHT22;54061;52.036;5.558;2022-09-03T00:58:39;18.40;49.70
67147;DHT22;54061;52.036;5.558;2022-09-03T01:01:12;18.30;48.80
67147;DHT22;54061;52.036;5.558;2022-09-03T01:03:45;18.30;48.00
67147;DHT22;54061;52.036;5.558;2022-09-03T01:06:23;18.40;50.00
67147;DHT22;54061;52.036;5.558;2022-09-03T01:11:27;18.30;48.50
67147;DHT22;54061;52.036;5.558;2022-09-03T01:16:34;18.30;48.40
67147;DHT22;54061;52.036;5.558;2022-09-03T01:21:50;18.20;48.50
67147;DHT22;54061;52.036;5.558;2022-09-03T01:24:37;18.20;49.20
67147;DHT22;54061;52.036;5.558;2022-09-03T01:27:10;18.20;49.20
67147;DHT22;54061;52.036;5.558;2022-09-03T01:30:03;18.20;49.10
67147;DHT22;54061;52.036;5.558;2022-09-03T01:32:35;18.20;48.70
67147;DHT22;54061;52.036;5.558;2022-09-03T01:35:10;18.30;49.30
67147;DHT22;54061;52.036;5.558;2022-09-03T01:40:35;18.20;48.40
67147;DHT22;54061;52.036;5.558;2022-09-03T01:48:09;18.20;50.00
67147;DHT22;54061;52.036;5.558;2022-09-03T01:50:47;18.20;50.70
67147;DHT22;54061;52.036;5.558;2022-09-03T01:58:32;18.10;49.20
67147;DHT22;54061;52.036;5.558;2022-09-03T02:01:01;18.10;49.20
67147;DHT22;54061;52.036;5.558;2022-09-03T02:03:35;18.10;48.50
67147;DHT22;54061;52.036;5.558;2022-09-03T02:06:01;18.20;48.90
67147;DHT22;54061;52.036;5.558;2022-09-03T02:08:27;18.20;48.20
67147;DHT22;54061;52.036;5.558;2022-09-03T02:10:54;18.20;49.20
67147;DHT22;54061;52.036;5.558;2022-09-03T02:13:25;18.10;48.50
67147;DHT22;54061;52.036;5.558;2022-09-03T02:15:52;18.10;50.10
67147;DHT22;54061;52.036;5.558;2022-09-03T02:18:21;18.00;50.00
67147;DHT22;54061;52.036;5.558;2022-09-03T02:20:48;18.00;50.70
67147;DHT22;54061;52.036;5.558;2022-09-03T02:23:14;17.90;50.60
67147;DHT22;54061;52.036;5.558;2022-09-03T02:26:23;17.80;50.00
67147;DHT22;54061;52.036;5.558;2022-09-03T02:28:29;17.80;51.40
67147;DHT22;54061;52.036;5.558;2022-09-03T02:30:55;17.80;51.50
67147;DHT22;54061;52.036;5.558;2022-09-03T02:33:21;17.80;51.80
67147;DHT22;54061;52.036;5.558;2022-09-03T02:35:46;17.80;49.70
67147;DHT22;54061;52.036;5.558;2022-09-03T02:38:17;17.80;50.20
67147;DHT22;54061;52.036;5.558;2022-09-03T02:40:43;17.80;49.20
67147;DHT22;54061;52.036;5.558;2022-09-03T02:43:10;17.80;49.20
67147;DHT22;54061;52.036;5.558;2022-09-03T02:45:39;17.80;51.70
67147;DHT22;54061;52.036;5.558;2022-09-03T02:48:06;17.70;49.80
67147;DHT22;54061;52.036;5.558;2022-09-03T02:50:39;17.70;51.80
67147;DHT22;54061;52.036;5.558;2022-09-03T02:53:05;17.60;51.30
67147;DHT22;54061;52.036;5.558;2022-09-03T02:55:30;17.50;51.70
67147;DHT22;54061;52.036;5.558;2022-09-03T02:57:55;17.60;51.80
67147;DHT22;54061;52.036;5.558;2022-09-03T03:00:21;17.60;51.30
67147;DHT22;54061;52.036;5.558;2022-09-03T03:02:47;17.60;51.00
67147;DHT22;54061;52.036;5.558;2022-09-03T03:05:14;17.50;51.40
67147;DHT22;54061;52.036;5.558;2022-09-03T03:07:42;17.50;52.80
67147;DHT22;54061;52.036;5.558;2022-09-03T03:10:08;17.40;52.30
67147;DHT22;54061;52.036;5.558;2022-09-03T03:12:33;17.50;52.60
67147;DHT22;54061;52.036;5.558;2022-09-03T03:14:59;17.50;51.40
67147;DHT22;54061;52.036;5.558;2022-09-03T03:17:24;17.50;51.20
67147;DHT22;54061;52.036;5.558;2022-09-03T03:19:50;17.50;50.60
67147;DHT22;54061;52.036;5.558;2022-09-03T03:22:16;17.50;50.30
67147;DHT22;54061;52.036;5.558;2022-09-03T03:24:41;17.50;51.10
67147;DHT22;54061;52.036;5.558;2022-09-03T03:27:07;17.50;51.10
67147;DHT22;54061;52.036;5.558;2022-09-03T03:29:35;17.50;50.90
67147;DHT22;54061;52.036;5.558;2022-09-03T03:32:00;17.50;52.80
67147;DHT22;54061;52.036;5.558;2022-09-03T03:34:26;17.40;52.30
67147;DHT22;54061;52.036;5.558;2022-09-03T03:36:51;17.40;51.00
67147;DHT22;54061;52.036;5.558;2022-09-03T03:39:17;17.40;50.50
67147;DHT22;54061;52.036;5.558;2022-09-03T03:41:42;17.40;50.90
67147;DHT22;54061;52.036;5.558;2022-09-03T03:44:08;17.50;50.40
67147;DHT22;54061;52.036;5.558;2022-09-03T03:46:34;17.50;50.70
67147;DHT22;54061;52.036;5.558;2022-09-03T03:49:00;17.50;52.20
67147;DHT22;54061;52.036;5.558;2022-09-03T03:51:26;17.40;50.30
67147;DHT22;54061;52.036;5.558;2022-09-03T03:53:54;17.50;52.60
67147;DHT22;54061;52.036;5.558;2022-09-03T03:56:21;17.40;52.80
67147;DHT22;54061;52.036;5.558;2022-09-03T03:58:46;17.30;51.70
67147;DHT22;54061;52.036;5.558;2022-09-03T04:01:16;17.30;53.30
67147;DHT22;54061;52.036;5.558;2022-09-03T04:03:42;17.30;51.50
67147;DHT22;54061;52.036;5.558;2022-09-03T04:06:08;17.20;53.20
67147;DHT22;54061;52.036;5.558;2022-09-03T04:08:34;17.20;51.70
67147;DHT22;54061;52.036;5.558;2022-09-03T04:11:01;17.30;53.50
67147;DHT22;54061;52.036;5.558;2022-09-03T04:13:30;17.20;53.00
67147;DHT22;54061;52.036;5.558;2022-09-03T04:16:03;17.20;52.60
67147;DHT22;54061;52.036;5.558;2022-09-03T04:18:29;17.20;53.00
67147;DHT22;54061;52.036;5.558;2022-09-03T04:20:59;17.20;54.00
67147;DHT22;54061;52.036;5.558;2022-09-03T04:23:24;17.20;53.10
67147;DHT22;54061;52.036;5.558;2022-09-03T04:25:53;17.10;51.30
67147;DHT22;54061;52.036;5.558;2022-09-03T04:28:18;17.20;52.00
67147;DHT22;54061;52.036;5.558;2022-09-03T04:30:44;17.20;51.10
67147;DHT22;54061;52.036;5.558;2022-09-03T04:33:09;17.30;50.50
67147;DHT22;54061;52.036;5.558;2022-09-03T04:35:35;17.30;50.90
67147;DHT22;54061;52.036;5.558;2022-09-03T04:38:00;17.30;52.40
67147;DHT22;54061;52.036;5.558;2022-09-03T04:40:26;17.30;51.90
67147;DHT22;54061;52.036;5.558;2022-09-03T04:42:55;17.30;51.00
67147;DHT22;54061;52.036;5.558;2022-09-03T04:45:21;17.30;51.20
67147;DHT22;54061;52.036;5.558;2022-09-03T04:48:07;17.30;51.10
67147;DHT22;54061;52.036;5.558;2022-09-03T04:50:34;17.20;51.10
67147;DHT22;54061;52.036;5.558;2022-09-03T04:53:00;17.20;52.40
67147;DHT22;54061;52.036;5.558;2022-09-03T04:55:26;17.20;51.40
67147;DHT22;54061;52.036;5.558;2022-09-03T04:57:52;17.10;51.10
67147;DHT22;54061;52.036;5.558;2022-09-03T05:00:17;17.20;50.70
67147;DHT22;54061;52.036;5.558;2022-09-03T05:02:44;17.20;52.40
67147;DHT22;54061;52.036;5.558;2022-09-03T05:05:13;17.10;51.80
67147;DHT22;54061;52.036;5.558;2022-09-03T05:07:39;17.10;50.60
67147;DHT22;54061;52.036;5.558;2022-09-03T05:10:06;17.20;50.60
67147;DHT22;54061;52.036;5.558;2022-09-03T05:12:32;17.30;50.40
67147;DHT22;54061;52.036;5.558;2022-09-03T05:14:58;17.30;50.10
67147;DHT22;54061;52.036;5.558;2022-09-03T05:17:24;17.40;50.10
67147;DHT22;54061;52.036;5.558;2022-09-03T05:19:50;17.40;50.10
67147;DHT22;54061;52.036;5.558;2022-09-03T05:22:15;17.40;50.00
67147;DHT22;54061;52.036;5.558;2022-09-03T05:24:45;17.40;50.00
67147;DHT22;54061;52.036;5.558;2022-09-03T05:27:11;17.40;49.90
67147;DHT22;54061;52.036;5.558;2022-09-03T05:29:36;17.40;49.80
67147;DHT22;54061;52.036;5.558;2022-09-03T05:32:02;17.40;50.00
67147;DHT22;54061;52.036;5.558;2022-09-03T05:34:28;17.40;49.80
67147;DHT22;54061;52.036;5.558;2022-09-03T05:36:53;17.40;50.10
67147;DHT22;54061;52.036;5.558;2022-09-03T05:39:20;17.40;50.00
67147;DHT22;54061;52.036;5.558;2022-09-03T05:41:46;17.40;49.90
67147;DHT22;54061;52.036;5.558;2022-09-03T05:44:16;17.40;49.80
67147;DHT22;54061;52.036;5.558;2022-09-03T05:46:42;17.40;50.40
67147;DHT22;54061;52.036;5.558;2022-09-03T05:49:07;17.40;49.90
67147;DHT22;54061;52.036;5.558;2022-09-03T05:51:33;17.50;49.80
67147;DHT22;54061;52.036;5.558;2022-09-03T05:54:00;17.50;50.60
67147;DHT22;54061;52.036;5.558;2022-09-03T05:56:28;17.40;50.30
67147;DHT22;54061;52.036;5.558;2022-09-03T05:58:55;17.40;50.40
67147;DHT22;54061;52.036;5.558;2022-09-03T06:03:47;17.40;51.50
67147;DHT22;54061;52.036;5.558;2022-09-03T06:06:13;17.40;50.60
67147;DHT22;54061;52.036;5.558;2022-09-03T06:08:38;17.40;52.00
67147;DHT22;54061;52.036;5.558;2022-09-03T06:11:04;17.40;51.60
67147;DHT22;54061;52.036;5.558;2022-09-03T06:13:31;17.30;52.90
67147;DHT22;54061;52.036;5.558;2022-09-03T06:15:57;17.30;52.90
67147;DHT22;54061;52.036;5.558;2022-09-03T06:18:24;17.30;51.40
67147;DHT22;54061;52.036;5.558;2022-09-03T06:20:56;17.40;53.60
67147;DHT22;54061;52.036;5.558;2022-09-03T06:23:22;17.40;53.90
67147;DHT22;54061;52.036;5.558;2022-09-03T06:25:47;17.50;51.80
67147;DHT22;54061;52.036;5.558;2022-09-03T06:28:13;17.50;53.00
67147;DHT22;54061;52.036;5.558;2022-09-03T06:30:39;17.60;52.10
67147;DHT22;54061;52.036;5.558;2022-09-03T06:33:06;17.60;51.00
67147;DHT22;54061;52.036;5.558;2022-09-03T06:35:31;17.70;51.70
67147;DHT22;54061;52.036;5.558;2022-09-03T06:37:56;17.80;50.90
67147;DHT22;54061;52.036;5.558;2022-09-03T06:40:22;17.80;51.70
67147;DHT22;54061;52.036;5.558;2022-09-03T06:42:56;17.90;51.20
67147;DHT22;54061;52.036;5.558;2022-09-03T06:45:26;17.90;52.10
67147;DHT22;54061;52.036;5.558;2022-09-03T06:47:53;18.00;50.90
67147;DHT22;54061;52.036;5.558;2022-09-03T06:50:19;18.00;52.30
67147;DHT22;54061;52.036;5.558;2022-09-03T06:52:49;18.00;53.60
67147;DHT22;54061;52.036;5.558;2022-09-03T06:55:14;18.10;52.60
67147;DHT22;54061;52.036;5.558;2022-09-03T06:57:40;18.20;50.30
67147;DHT22;54061;52.036;5.558;2022-09-03T07:00:05;18.30;51.50
67147;DHT22;54061;52.036;5.558;2022-09-03T07:02:31;18.40;50.40
67147;DHT22;54061;52.036;5.558;2022-09-03T07:04:57;18.40;49.70
67147;DHT22;54061;52.036;5.558;2022-09-03T07:07:23;18.50;49.90
67147;DHT22;54061;52.036;5.558;2022-09-03T07:09:48;18.60;49.50
67147;DHT22;54061;52.036;5.558;2022-09-03T07:12:13;18.70;50.90
67147;DHT22;54061;52.036;5.558;2022-09-03T07:14:42;18.80;51.50
67147;DHT22;54061;52.036;5.558;2022-09-03T07:17:07;18.80;53.00
67147;DHT22;54061;52.036;5.558;2022-09-03T07:19:33;18.80;49.90
67147;DHT22;54061;52.036;5.558;2022-09-03T07:21:58;19.00;50.20
67147;DHT22;54061;52.036;5.558;2022-09-03T07:24:24;19.10;51.00
67147;DHT22;54061;52.036;5.558;2022-09-03T07:26:51;19.10;51.10
67147;DHT22;54061;52.036;5.558;2022-09-03T07:29:17;19.20;50.20
67147;DHT22;54061;52.036;5.558;2022-09-03T07:31:46;19.20;50.50
67147;DHT22;54061;52.036;5.558;2022-09-03T07:34:12;19.30;49.20
67147;DHT22;54061;52.036;5.558;2022-09-03T07:36:42;19.50;50.30
67147;DHT22;54061;52.036;5.558;2022-09-03T07:39:10;19.50;49.70
67147;DHT22;54061;52.036;5.558;2022-09-03T07:41:36;19.50;49.10
67147;DHT22;54061;52.036;5.558;2022-09-03T07:44:02;19.50;48.50
67147;DHT22;54061;52.036;5.558;2022-09-03T07:46:30;19.60;48.60
67147;DHT22;54061;52.036;5.558;2022-09-03T07:48:57;19.80;48.10
67147;DHT22;54061;52.036;5.558;2022-09-03T07:51:26;19.90;48.00
67147;DHT22;54061;52.036;5.558;2022-09-03T07:53:53;20.00;49.10
67147;DHT22;54061;52.036;5.558;2022-09-03T07:56:18;20.10;49.10
67147;DHT22;54061;52.036;5.558;2022-09-03T07:58:44;20.00;48.80
67147;DHT22;54061;52.036;5.558;2022-09-03T08:01:21;20.10;48.00
67147;DHT22;54061;52.036;5.558;2022-09-03T08:03:48;20.10;49.40
67147;DHT22;54061;52.036;5.558;2022-09-03T08:06:15;20.20;48.30
67147;DHT22;54061;52.036;5.558;2022-09-03T08:08:41;20.20;48.40
67147;DHT22;54061;52.036;5.558;2022-09-03T08:11:10;20.20;48.60
67147;DHT22;54061;52.036;5.558;2022-09-03T08:13:39;20.40;47.90
67147;DHT22;54061;52.036;5.558;2022-09-03T08:16:06;20.50;47.10
67147;DHT22;54061;52.036;5.558;2022-09-03T08:18:33;20.60;46.90
67147;DHT22;54061;52.036;5.558;2022-09-03T08:21:08;20.80;46.90
67147;DHT22;54061;52.036;5.558;2022-09-03T08:23:37;20.90;47.40
67147;DHT22;54061;52.036;5.558;2022-09-03T08:26:03;20.90;47.80
67147;DHT22;54061;52.036;5.558;2022-09-03T08:28:29;21.20;46.80
67147;DHT22;54061;52.036;5.558;2022-09-03T08:31:05;21.10;47.20
67147;DHT22;54061;52.036;5.558;2022-09-03T08:33:30;21.10;47.30
67147;DHT22;54061;52.036;5.558;2022-09-03T08:36:03;21.20;47.50
67147;DHT22;54061;52.036;5.558;2022-09-03T08:38:30;21.50;46.40
67147;DHT22;54061;52.036;5.558;2022-09-03T08:41:01;21.80;46.10
67147;DHT22;54061;52.036;5.558;2022-09-03T08:43:27;22.00;45.60
67147;DHT22;54061;52.036;5.558;2022-09-03T08:45:52;22.20;45.40
67147;DHT22;54061;52.036;5.558;2022-09-03T08:48:18;22.30;44.90
67147;DHT22;54061;52.036;5.558;2022-09-03T08:50:46;22.70;44.80
67147;DHT22;54061;52.036;5.558;2022-09-03T08:53:15;23.10;44.60
67147;DHT22;54061;52.036;5.558;2022-09-03T08:55:46;23.10;43.60
67147;DHT22;54061;52.036;5.558;2022-09-03T08:58:15;22.90;44.40
67147;DHT22;54061;52.036;5.558;2022-09-03T09:05:50;23.80;42.20
67147;DHT22;54061;52.036;5.558;2022-09-03T09:10:48;24.20;43.80
67147;DHT22;54061;52.036;5.558;2022-09-03T09:13:22;24.50;42.60
67147;DHT22;54061;52.036;5.558;2022-09-03T09:16:03;24.60;42.70
67147;DHT22;54061;52.036;5.558;2022-09-03T09:21:19;25.00;43.60
67147;DHT22;54061;52.036;5.558;2022-09-03T09:23:48;25.60;42.90
67147;DHT22;54061;52.036;5.558;2022-09-03T09:26:15;25.50;45.00
67147;DHT22;54061;52.036;5.558;2022-09-03T09:28:41;25.20;42.90
67147;DHT22;54061;52.036;5.558;2022-09-03T09:31:09;25.40;44.20
67147;DHT22;54061;52.036;5.558;2022-09-03T09:33:36;26.00;44.10
67147;DHT22;54061;52.036;5.558;2022-09-03T09:36:03;26.50;43.80
67147;DHT22;54061;52.036;5.558;2022-09-03T09:38:30;26.90;41.10
67147;DHT22;54061;52.036;5.558;2022-09-03T09:41:06;26.80;39.60
67147;DHT22;54061;52.036;5.558;2022-09-03T09:43:32;26.30;41.60
67147;DHT22;54061;52.036;5.558;2022-09-03T09:46:04;26.30;42.10
67147;DHT22;54061;52.036;5.558;2022-09-03T09:48:30;26.80;42.90
67147;DHT22;54061;52.036;5.558;2022-09-03T09:51:11;27.30;43.00
67147;DHT22;54061;52.036;5.558;2022-09-03T09:53:37;27.70;41.70
67147;DHT22;54061;52.036;5.558;2022-09-03T09:56:03;27.70;42.90
67147;DHT22;54061;52.036;5.558;2022-09-03T09:58:29;28.10;42.10
67147;DHT22;54061;52.036;5.558;2022-09-03T10:01:09;28.10;39.90
67147;DHT22;54061;52.036;5.558;2022-09-03T10:03:47;28.00;39.30
67147;DHT22;54061;52.036;5.558;2022-09-03T10:06:14;27.80;40.20
67147;DHT22;54061;52.036;5.558;2022-09-03T10:09:08;27.80;37.90
67147;DHT22;54061;52.036;5.558;2022-09-03T10:11:34;28.00;42.10
67147;DHT22;54061;52.036;5.558;2022-09-03T10:14:03;28.00;41.10
67147;DHT22;54061;52.036;5.558;2022-09-03T10:16:32;28.20;40.10
67147;DHT22;54061;52.036;5.558;2022-09-03T10:19:03;28.40;42.50
67147;DHT22;54061;52.036;5.558;2022-09-03T10:21:31;28.90;40.20
67147;DHT22;54061;52.036;5.558;2022-09-03T10:24:14;29.10;40.40
67147;DHT22;54061;52.036;5.558;2022-09-03T10:26:43;29.00;39.10
67147;DHT22;54061;52.036;5.558;2022-09-03T10:29:10;29.10;39.30
67147;DHT22;54061;52.036;5.558;2022-09-03T10:44:26;28.50;36.70
67147;DHT22;54061;52.036;5.558;2022-09-03T10:47:08;28.40;37.70
67147;DHT22;54061;52.036;5.558;2022-09-03T10:49:46;28.20;39.50
67147;DHT22;54061;52.036;5.558;2022-09-03T10:55:07;28.20;40.40
67147;DHT22;54061;52.036;5.558;2022-09-03T11:00:08;28.10;37.00
67147;DHT22;54061;52.036;5.558;2022-09-03T11:02:42;27.80;37.80
67147;DHT22;54061;52.036;5.558;2022-09-03T11:05:17;27.70;39.10
67147;DHT22;54061;52.036;5.558;2022-09-03T11:07:47;27.30;39.10
67147;DHT22;54061;52.036;5.558;2022-09-03T11:12:59;28.00;36.50
67147;DHT22;54061;52.036;5.558;2022-09-03T11:15:35;28.10;36.00
67147;DHT22;54061;52.036;5.558;2022-09-03T11:20:43;28.20;37.10
67147;DHT22;54061;52.036;5.558;2022-09-03T11:23:08;28.40;36.30
67147;DHT22;54061;52.036;5.558;2022-09-03T11:25:42;28.40;38.60
67147;DHT22;54061;52.036;5.558;2022-09-03T11:30:45;28.10;37.10
67147;DHT22;54061;52.036;5.558;2022-09-03T11:33:16;28.20;38.60
67147;DHT22;54061;52.036;5.558;2022-09-03T11:35:42;28.10;35.70
67147;DHT22;54061;52.036;5.558;2022-09-03T11:38:29;27.70;38.50
67147;DHT22;54061;52.036;5.558;2022-09-03T11:41:12;27.40;37.10
67147;DHT22;54061;52.036;5.558;2022-09-03T11:43:38;27.80;39.70
67147;DHT22;54061;52.036;5.558;2022-09-03T11:48:52;28.90;37.20
67147;DHT22;54061;52.036;5.558;2022-09-03T11:51:20;28.80;34.60
67147;DHT22;54061;52.036;5.558;2022-09-03T11:56:32;28.10;36.90
67147;DHT22;54061;52.036;5.558;2022-09-03T11:58:59;28.10;37.00
67147;DHT22;54061;52.036;5.558;2022-09-03T12:01:26;28.20;34.90
67147;DHT22;54061;52.036;5.558;2022-09-03T12:14:16;28.30;35.30
67147;DHT22;54061;52.036;5.558;2022-09-03T12:19:18;28.10;35.40
67147;DHT22;54061;52.036;5.558;2022-09-03T12:21:47;28.10;36.50
67147;DHT22;54061;52.036;5.558;2022-09-03T12:24:13;28.30;35.60
67147;DHT22;54061;52.036;5.558;2022-09-03T12:26:40;28.10;35.90
67147;DHT22;54061;52.036;5.558;2022-09-03T12:29:06;27.70;36.40
67147;DHT22;54061;52.036;5.558;2022-09-03T12:31:44;27.60;36.10
67147;DHT22;54061;52.036;5.558;2022-09-03T12:34:11;27.70;37.10
67147;DHT22;54061;52.036;5.558;2022-09-03T12:36:41;27.90;36.50
67147;DHT22;54061;52.036;5.558;2022-09-03T12:39:08;27.70;35.90
67147;DHT22;54061;52.036;5.558;2022-09-03T12:41:33;27.30;37.00
67147;DHT22;54061;52.036;5.558;2022-09-03T12:43:59;27.30;37.20
67147;DHT22;54061;52.036;5.558;2022-09-03T12:46:26;27.20;37.60
67147;DHT22;54061;52.036;5.558;2022-09-03T12:48:52;27.10;37.70
67147;DHT22;54061;52.036;5.558;2022-09-03T12:51:18;27.00;37.50
67147;DHT22;54061;52.036;5.558;2022-09-03T12:53:44;27.00;37.40
67147;DHT22;54061;52.036;5.558;2022-09-03T12:56:09;27.10;37.40
67147;DHT22;54061;52.036;5.558;2022-09-03T12:58:37;27.10;37.70
67147;DHT22;54061;52.036;5.558;2022-09-03T13:01:13;27.20;38.00
67147;DHT22;54061;52.036;5.558;2022-09-03T13:06:24;27.20;37.30
67147;DHT22;54061;52.036;5.558;2022-09-03T13:08:52;27.00;38.00
67147;DHT22;54061;52.036;5.558;2022-09-03T13:11:20;27.30;38.10
67147;DHT22;54061;52.036;5.558;2022-09-03T13:13:53;27.60;38.10
67147;DHT22;54061;52.036;5.558;2022-09-03T13:16:44;27.90;37.30
67147;DHT22;54061;52.036;5.558;2022-09-03T13:32:01;27.20;37.90
67147;DHT22;54061;52.036;5.558;2022-09-03T13:34:35;27.30;38.60
67147;DHT22;54061;52.036;5.558;2022-09-03T13:39:46;27.50;38.30
67147;DHT22;54061;52.036;5.558;2022-09-03T13:44:54;27.50;37.70
67147;DHT22;54061;52.036;5.558;2022-09-03T13:50:02;27.40;38.00
67147;DHT22;54061;52.036;5.558;2022-09-03T13:52:50;27.30;37.80
67147;DHT22;54061;52.036;5.558;2022-09-03T13:57:53;27.30;38.00
67147;DHT22;54061;52.036;5.558;2022-09-03T14:03:09;27.40;38.30
67147;DHT22;54061;52.036;5.558;2022-09-03T14:11:12;27.50;36.70
67147;DHT22;54061;52.036;5.558;2022-09-03T14:16:23;27.70;36.70
67147;DHT22;54061;52.036;5.558;2022-09-03T14:19:01;27.90;37.00
67147;DHT22;54061;52.036;5.558;2022-09-03T14:21:29;27.70;37.50
67147;DHT22;54061;52.036;5.558;2022-09-03T14:24:00;27.70;37.50
67147;DHT22;54061;52.036;5.558;2022-09-03T14:26:28;27.60;36.80
67147;DHT22;54061;52.036;5.558;2022-09-03T14:29:01;27.50;37.50
67147;DHT22;54061;52.036;5.558;2022-09-03T14:34:23;27.30;38.30
67147;DHT22;54061;52.036;5.558;2022-09-03T14:41:51;27.10;37.10
67147;DHT22;54061;52.036;5.558;2022-09-03T14:44:36;27.00;37.40
67147;DHT22;54061;52.036;5.558;2022-09-03T14:59:44;27.80;37.30
67147;DHT22;54061;52.036;5.558;2022-09-03T15:07:33;27.30;37.50
67147;DHT22;54061;52.036;5.558;2022-09-03T15:12:45;27.30;36.70
67147;DHT22;54061;52.036;5.558;2022-09-03T15:20:25;27.30;36.70
67147;DHT22;54061;52.036;5.558;2022-09-03T15:23:00;27.30;36.80
67147;DHT22;54061;52.036;5.558;2022-09-03T15:25:32;27.30;37.40
67147;DHT22;54061;52.036;5.558;2022-09-03T15:30:34;27.30;36.80
67147;DHT22;54061;52.036;5.558;2022-09-03T15:33:04;27.30;37.30
67147;DHT22;54061;52.036;5.558;2022-09-03T15:40:55;27.30;36.70
67147;DHT22;54061;52.036;5.558;2022-09-03T15:43:29;27.20;36.80
67147;DHT22;54061;52.036;5.558;2022-09-03T15:45:56;27.30;36.90
67147;DHT22;54061;52.036;5.558;2022-09-03T15:51:05;27.40;37.60
67147;DHT22;54061;52.036;5.558;2022-09-03T15:59:11;27.40;36.80
67147;DHT22;54061;52.036;5.558;2022-09-03T16:01:44;27.30;36.10
67147;DHT22;54061;52.036;5.558;2022-09-03T16:14:27;27.10;36.00
67147;DHT22;54061;52.036;5.558;2022-09-03T16:17:00;27.00;36.40
67147;DHT22;54061;52.036;5.558;2022-09-03T16:19:27;27.00;36.60
67147;DHT22;54061;52.036;5.558;2022-09-03T16:21:57;27.00;36.80
67147;DHT22;54061;52.036;5.558;2022-09-03T16:24:25;27.00;36.60
67147;DHT22;54061;52.036;5.558;2022-09-03T16:27:02;27.00;36.10
67147;DHT22;54061;52.036;5.558;2022-09-03T16:29:31;26.90;36.10
67147;DHT22;54061;52.036;5.558;2022-09-03T16:34:42;26.90;36.00
67147;DHT22;54061;52.036;5.558;2022-09-03T16:42:42;26.80;36.90
67147;DHT22;54061;52.036;5.558;2022-09-03T16:45:13;26.80;36.60
67147;DHT22;54061;52.036;5.558;2022-09-03T16:47:51;26.80;36.80
67147;DHT22;54061;52.036;5.558;2022-09-03T16:50:32;26.80;37.10
67147;DHT22;54061;52.036;5.558;2022-09-03T16:58:20;26.80;36.80
67147;DHT22;54061;52.036;5.558;2022-09-03T17:03:28;26.60;37.10
67147;DHT22;54061;52.036;5.558;2022-09-03T17:13:48;26.70;37.90
67147;DHT22;54061;52.036;5.558;2022-09-03T17:18:49;26.70;37.70
67147;DHT22;54061;52.036;5.558;2022-09-03T17:29:13;26.60;38.60
67147;DHT22;54061;52.036;5.558;2022-09-03T17:31:47;26.60;38.80
67147;DHT22;54061;52.036;5.558;2022-09-03T17:42:12;26.30;39.70
67147;DHT22;54061;52.036;5.558;2022-09-03T17:44:49;26.20;39.70
67147;DHT22;54061;52.036;5.558;2022-09-03T17:47:37;26.10;40.00
67147;DHT22;54061;52.036;5.558;2022-09-03T17:52:40;26.00;40.10
67147;DHT22;54061;52.036;5.558;2022-09-03T17:55:12;26.00;40.30
67147;DHT22;54061;52.036;5.558;2022-09-03T17:57:44;26.00;40.20
67147;DHT22;54061;52.036;5.558;2022-09-03T18:00:11;26.00;40.20
67147;DHT22;54061;52.036;5.558;2022-09-03T18:03:28;26.00;40.50
67147;DHT22;54061;52.036;5.558;2022-09-03T18:05:43;25.90;40.70
67147;DHT22;54061;52.036;5.558;2022-09-03T18:08:17;25.80;40.80
67147;DHT22;54061;52.036;5.558;2022-09-03T18:13:23;25.60;41.80
67147;DHT22;54061;52.036;5.558;2022-09-03T18:18:34;25.40;41.40
67147;DHT22;54061;52.036;5.558;2022-09-03T18:21:03;25.40;41.80
67147;DHT22;54061;52.036;5.558;2022-09-03T18:26:34;25.30;42.10
67147;DHT22;54061;52.036;5.558;2022-09-03T18:29:38;25.20;42.50
67147;DHT22;54061;52.036;5.558;2022-09-03T18:32:27;25.20;43.10
67147;DHT22;54061;52.036;5.558;2022-09-03T18:35:12;25.10;42.40
67147;DHT22;54061;52.036;5.558;2022-09-03T18:37:56;25.00;42.80
67147;DHT22;54061;52.036;5.558;2022-09-03T18:41:05;25.00;42.80
67147;DHT22;54061;52.036;5.558;2022-09-03T18:43:48;25.10;43.00
67147;DHT22;54061;52.036;5.558;2022-09-03T18:46:53;25.10;43.30
67147;DHT22;54061;52.036;5.558;2022-09-03T18:49:43;25.10;43.10
67147;DHT22;54061;52.036;5.558;2022-09-03T18:52:31;24.90;42.90
67147;DHT22;54061;52.036;5.558;2022-09-03T18:58:08;24.70;43.80
67147;DHT22;54061;52.036;5.558;2022-09-03T19:00:58;24.70;43.90
67147;DHT22;54061;52.036;5.558;2022-09-03T19:03:49;24.70;43.90
67147;DHT22;54061;52.036;5.558;2022-09-03T19:06:46;24.70;43.80
67147;DHT22;54061;52.036;5.558;2022-09-03T19:21:16;24.50;42.90
67147;DHT22;54061;52.036;5.558;2022-09-03T19:24:03;24.40;43.00
67147;DHT22;54061;52.036;5.558;2022-09-03T19:27:10;24.30;41.90
67147;DHT22;54061;52.036;5.558;2022-09-03T19:30:18;24.30;42.90
67147;DHT22;54061;52.036;5.558;2022-09-03T19:33:16;24.20;43.00
67147;DHT22;54061;52.036;5.558;2022-09-03T19:36:36;24.20;43.60
67147;DHT22;54061;52.036;5.558;2022-09-03T19:45:59;24.10;44.40
67147;DHT22;54061;52.036;5.558;2022-09-03T19:54:53;23.80;43.80
67147;DHT22;54061;52.036;5.558;2022-09-03T19:57:40;23.80;43.40
67147;DHT22;54061;52.036;5.558;2022-09-03T20:00:24;23.80;43.50
67147;DHT22;54061;52.036;5.558;2022-09-03T20:03:12;23.70;43.90
67147;DHT22;54061;52.036;5.558;2022-09-03T20:05:58;23.30;44.40
67147;DHT22;54061;52.036;5.558;2022-09-03T20:08:43;23.30;44.70
67147;DHT22;54061;52.036;5.558;2022-09-03T20:11:29;23.30;44.70
67147;DHT22;54061;52.036;5.558;2022-09-03T20:13:56;23.30;44.70
67147;DHT22;54061;52.036;5.558;2022-09-03T20:22:36;23.20;45.20
67147;DHT22;54061;52.036;5.558;2022-09-03T20:31:00;23.10;47.10
67147;DHT22;54061;52.036;5.558;2022-09-03T20:36:38;23.00;46.20
67147;DHT22;54061;52.036;5.558;2022-09-03T20:41:48;22.90;45.70